Pratinha, Brazil
Current Conditions -  °F | °C
As of 3:00 PM on Thursday 27 Nov 2014 (Local Time) from SBAX Reporting Station
Scattered Clouds Scattered Clouds  
Wind Chill: 77°   Ceiling: Unl
Heat Index: 79°   Visibility: 6mi
Dew Point: 68°   Wind: 6mph
Humidity: 74%   Direction: 230°SW
Pressure: 29.97"   Gusts: NA
Location:  19.75°S, 46.38°W
Report Text: SBAX 271700Z 23005KT 9999 SCT012 25/20 Q1015
Loading
Personal Weather Stations






























Interactive Weather Map New forecast layout! Learn more

10-Day Weather Forecast

Advertisements
Track Severe Weather on mobile